Monroe, MI

1:42 PM EDT on May 27, 2018 (GMT -0400)
Custer

Weather History for KTTF - April, 2013

Change the Weather History Date:

Wednesday, April 24, 2013

  Actual Average Record
Temperature  
Mean Temperature 48 °F -  
Max Temperature 59 °F 61 °F 89 °F (1985)
Min Temperature 37 °F 40 °F 22 °F (1986)
Degree Days  
Heating Degree Days 17    
Moisture  
Dew Point 41 °F    
Average Humidity 88    
Maximum Humidity 100    
Minimum Humidity 61    
Precipitation  
Precipitation 0.00 in - - ()
Sea Level Pressure  
Sea Level Pressure 29.87 in    
Wind  
Wind Speed 10 mph (WNW)    
Max Wind Speed 17 mph    
Max Gust Speed 26 mph    
Visibility 8 miles    
Events Rain    
Averages and records for this station are not official NWS values.
T = Trace of Precipitation, MM = Missing Value Source: NWS Daily Summary

Daily Weather History Graph

Daily Weather History Graph

Search for Another Location

Airport or City:

Astronomy

Apr. 24, 2013 Rise Set
Actual Time 6:39 AM EDT 8:25 PM EDT
Civil Twilight 6:09 AM EDT 8:54 PM EDT
Nautical Twilight 5:33 AM EDT 9:31 PM EDT
Astronomical Twilight 4:54 AM EDT 10:10 PM EDT
Moon 7:26 PM EDT (4/24) 5:43 AM EDT (4/24)
Length of Visible Light 14h 45m
Length of Day
13h 45m
Waxing Gibbous, 98% of the Moon is Illuminated
Apr 24
Waxing Gibbous
Apr 25
Full
May 2
Last Quarter
May 9
New
May 18
First Quarter

Hourly Weather History & Observations

Time (EDT) Temp. Windchill Dew Point Humidity Pressure Visibility Wind Dir Wind Speed Gust Speed Precip Events Conditions
12:12 AM 57.2 °F - 55.4 °F 94% 29.80 in 4.0 mi SSE 9.2 mph - N/A   Light Drizzle
12:32 AM 57.2 °F - 55.4 °F 94% 29.78 in 5.0 mi SE 8.1 mph - N/A   Overcast
12:52 AM 57.2 °F - 55.4 °F 94% 29.78 in 5.0 mi SSE 6.9 mph - N/A Rain Light Rain
1:12 AM 57.2 °F - 55.4 °F 94% 29.77 in 5.0 mi South 8.1 mph - N/A Rain Rain
1:33 AM 57.2 °F - 55.4 °F 94% 29.77 in 5.0 mi South 9.2 mph - N/A Rain Rain
1:53 AM 57.2 °F - 55.4 °F 94% 29.75 in 7.0 mi South 9.2 mph - N/A Rain Light Rain
2:13 AM 57.2 °F - 55.4 °F 94% 29.74 in 10.0 mi South 5.8 mph - N/A Rain Light Rain
2:33 AM 57.2 °F - 55.4 °F 94% 29.73 in 7.0 mi SSW 5.8 mph - N/A Rain Light Rain
2:54 AM 59.0 °F - 55.4 °F 88% 29.72 in 10.0 mi SSW 11.5 mph 16.1 mph N/A   Overcast
3:14 AM 59.0 °F - 55.4 °F 88% 29.71 in 10.0 mi SSW 12.7 mph - N/A   Overcast
3:36 AM 59.0 °F - 55.4 °F 88% 29.71 in 10.0 mi SSW 11.5 mph - N/A   Overcast
3:56 AM 59.0 °F - 55.4 °F 88% 29.70 in 10.0 mi SSW 11.5 mph - N/A   Overcast
4:16 AM 59.0 °F - 55.4 °F 88% 29.71 in 10.0 mi West 10.4 mph - N/A   Overcast
4:31 AM 53.6 °F - 51.8 °F 94% 29.72 in 10.0 mi NW 10.4 mph 17.3 mph N/A Rain Light Rain
4:51 AM 50.0 °F - 48.2 °F 94% 29.73 in 7.0 mi NNW 13.8 mph 20.7 mph N/A Rain Light Rain
5:12 AM 48.2 °F - 46.4 °F 93% 29.74 in 7.0 mi NNW 11.5 mph - N/A Rain Rain
5:32 AM 48.2 °F - 46.4 °F 93% 29.75 in 10.0 mi NNW 16.1 mph - N/A   Light Drizzle
5:52 AM 46.4 °F 41.5 °F 44.6 °F 93% 29.76 in 7.0 mi NNW 10.4 mph - N/A Rain Light Rain
6:12 AM 46.4 °F 41.9 °F 44.6 °F 93% 29.76 in 5.0 mi North 9.2 mph 20.7 mph N/A Rain Light Rain
6:32 AM 44.6 °F 38.4 °F 42.8 °F 93% 29.77 in 5.0 mi NNW 12.7 mph 18.4 mph N/A Rain Rain
6:52 AM 44.6 °F 38.8 °F 42.8 °F 93% 29.77 in 7.0 mi NNW 11.5 mph 17.3 mph N/A Rain Light Rain
7:12 AM 44.6 °F 38.4 °F 41.0 °F 87% 29.78 in 10.0 mi North 12.7 mph 20.7 mph N/A   Drizzle
7:32 AM 42.8 °F 37.0 °F 41.0 °F 93% 29.79 in 10.0 mi NNW 10.4 mph - N/A   Overcast
7:53 AM 42.8 °F 36.2 °F 41.0 °F 93% 29.80 in 10.0 mi NNW 12.7 mph 17.3 mph N/A Rain Light Rain
8:13 AM 42.8 °F 36.2 °F 39.2 °F 87% 29.81 in 7.0 mi NNW 12.7 mph 19.6 mph N/A Rain Light Rain
8:33 AM 41.0 °F 34.3 °F 39.2 °F 93% 29.81 in 2.5 mi NNW 11.5 mph - N/A Rain Rain
9:14 AM 41.0 °F 33.1 °F 39.2 °F 93% 29.80 in 10.0 mi North 15.0 mph - N/A   Light Drizzle
9:34 AM 41.0 °F 34.7 °F 37.4 °F 87% 29.81 in 10.0 mi North 10.4 mph - N/A   Light Drizzle
9:54 AM 39.2 °F 32.0 °F 37.4 °F 93% 29.81 in 5.0 mi NNW 11.5 mph - N/A Rain Rain
10:14 AM 39.2 °F 32.0 °F 37.4 °F 93% 29.80 in 4.0 mi NNW 11.5 mph - N/A Rain Rain
10:34 AM 39.2 °F 32.0 °F 37.4 °F 93% 29.81 in 3.0 mi NNW 11.5 mph - N/A Rain Rain
10:54 AM 39.2 °F 33.0 °F 37.4 °F 93% 29.82 in 4.0 mi NNW 9.2 mph - N/A Rain Rain
11:15 AM 39.2 °F 33.6 °F 37.4 °F 93% 29.83 in 4.0 mi NNW 8.1 mph - N/A Rain Rain
11:35 AM 39.2 °F 32.0 °F 37.4 °F 93% 29.84 in 5.0 mi NNW 11.5 mph - N/A Rain Rain
11:55 AM 37.4 °F 29.8 °F 37.4 °F 100% 29.84 in 3.0 mi NW 11.5 mph - N/A Rain Rain
12:15 PM 37.4 °F 30.3 °F 37.4 °F 100% 29.83 in 5.0 mi NW 10.4 mph - N/A Rain Light Rain
12:35 PM 37.4 °F 30.3 °F 37.4 °F 100% 29.82 in 10.0 mi NNW 10.4 mph - N/A Rain Light Rain
12:55 PM 37.4 °F 30.3 °F 37.4 °F 100% 29.84 in 10.0 mi NW 10.4 mph - N/A   Light Drizzle
1:15 PM 37.4 °F 28.2 °F 35.6 °F 93% 29.86 in 5.0 mi NW 16.1 mph 20.7 mph N/A   Drizzle
1:36 PM 37.4 °F 28.9 °F 35.6 °F 93% 29.87 in 2.5 mi NW 13.8 mph 18.4 mph N/A Rain Light Rain
2:16 PM 37.4 °F 28.9 °F 35.6 °F 93% 29.88 in 7.0 mi NW 13.8 mph 20.7 mph N/A Rain Light Rain
2:36 PM 37.4 °F 28.9 °F 35.6 °F 93% 29.89 in 3.0 mi WNW 13.8 mph 19.6 mph N/A Rain Light Rain
2:56 PM 37.4 °F 27.8 °F 35.6 °F 93% 29.88 in 4.0 mi NW 17.3 mph 25.3 mph N/A Rain Light Rain
3:16 PM 37.4 °F 30.8 °F 37.4 °F 100% 29.90 in 7.0 mi NW 9.2 mph - N/A Rain Light Rain
3:31 PM 39.2 °F 31.2 °F 35.6 °F 87% 29.91 in 10.0 mi WNW 13.8 mph 18.4 mph N/A Rain Light Rain
3:52 PM 39.2 °F 31.6 °F 35.6 °F 87% 29.92 in 7.0 mi NW 12.7 mph 23.0 mph N/A Rain Light Rain
4:12 PM 39.2 °F 31.2 °F 37.4 °F 93% 29.94 in 10.0 mi WNW 13.8 mph 21.9 mph N/A Rain Light Rain
4:32 PM 39.2 °F 30.2 °F 37.4 °F 93% 29.95 in 10.0 mi WNW 17.3 mph 20.7 mph N/A Rain Light Rain
4:52 PM 39.2 °F 32.5 °F 37.4 °F 93% 29.95 in 7.0 mi WNW 10.4 mph - N/A   Light Drizzle
5:12 PM 39.2 °F 32.0 °F 35.6 °F 87% 29.96 in 7.0 mi WNW 11.5 mph 26.5 mph N/A Rain Light Rain
5:32 PM 42.8 °F 35.4 °F 37.4 °F 81% 29.97 in 10.0 mi West 15.0 mph - N/A   Overcast
5:52 PM 42.8 °F 35.4 °F 37.4 °F 81% 29.97 in 10.0 mi West 15.0 mph - N/A   Mostly Cloudy
6:13 PM 42.8 °F 36.2 °F 37.4 °F 81% 29.98 in 10.0 mi West 12.7 mph 18.4 mph N/A   Scattered Clouds
6:33 PM 42.8 °F 36.2 °F 37.4 °F 81% 30.00 in 10.0 mi West 12.7 mph - N/A   Scattered Clouds
6:53 PM 42.8 °F 36.2 °F 35.6 °F 76% 30.00 in 10.0 mi West 12.7 mph 18.4 mph N/A   Overcast
7:13 PM 44.6 °F 38.4 °F 35.6 °F 71% 30.02 in 10.0 mi West 12.7 mph - N/A   Overcast
7:33 PM 44.6 °F 40.2 °F 37.4 °F 76% 30.02 in 10.0 mi West 8.1 mph - N/A   Overcast
7:53 PM 42.8 °F 38.0 °F 35.6 °F 76% 30.03 in 10.0 mi West 8.1 mph - N/A   Overcast
8:13 PM 42.8 °F 36.6 °F 33.8 °F 70% 30.04 in 10.0 mi West 11.5 mph - N/A   Mostly Cloudy
8:33 PM 42.8 °F 37.0 °F 33.8 °F 70% 30.05 in 10.0 mi West 10.4 mph 16.1 mph N/A   Mostly Cloudy
8:54 PM 42.8 °F 36.6 °F 30.2 °F 61% 30.07 in 10.0 mi West 11.5 mph - N/A   Mostly Cloudy
9:14 PM 41.0 °F 35.2 °F 30.2 °F 65% 30.08 in 10.0 mi West 9.2 mph - N/A   Scattered Clouds
9:34 PM 39.2 °F 34.2 °F 30.2 °F 70% 30.09 in 10.0 mi WSW 6.9 mph - N/A   Clear
9:54 PM 39.2 °F 34.2 °F 32.0 °F 75% 30.10 in 10.0 mi SW 6.9 mph - N/A   Clear
10:54 PM 37.4 °F 32.8 °F 32.0 °F 81% 30.12 in 10.0 mi WSW 5.8 mph - N/A   Clear
11:14 PM 37.4 °F 32.1 °F 32.0 °F 81% 30.14 in 10.0 mi WSW 6.9 mph - N/A   Clear
11:34 PM 37.4 °F 31.4 °F 30.2 °F 75% 30.14 in 10.0 mi WSW 8.1 mph - N/A   Clear
11:55 PM 37.4 °F 30.8 °F 30.2 °F 75% 30.14 in 10.0 mi WSW 9.2 mph - N/A   Clear